createdAt,value
2019-01-27T00:01:42.290Z,6.70
2019-01-27T00:04:12.696Z,6.70
2019-01-27T00:06:43.411Z,6.70
2019-01-27T00:09:13.910Z,6.70
2019-01-27T00:11:44.262Z,6.70
2019-01-27T00:14:14.593Z,6.70
2019-01-27T00:16:45.810Z,6.60
2019-01-27T00:19:16.102Z,6.60
2019-01-27T00:21:46.310Z,6.60
2019-01-27T00:24:16.663Z,6.60
2019-01-27T00:26:46.937Z,6.60
2019-01-27T00:29:17.223Z,6.60
2019-01-27T00:31:47.830Z,6.60
2019-01-27T00:34:18.173Z,6.50
2019-01-27T00:36:48.403Z,6.50
2019-01-27T00:39:18.674Z,6.50
2019-01-27T00:41:48.890Z,6.40
2019-01-27T00:44:19.226Z,6.50
2019-01-27T00:46:49.455Z,6.40
2019-01-27T00:49:19.795Z,6.40
2019-01-27T00:51:49.999Z,6.40
2019-01-27T00:54:20.629Z,6.40
2019-01-27T00:56:51.194Z,6.30
2019-01-27T00:59:21.507Z,6.30
2019-01-27T01:01:51.806Z,6.30
2019-01-27T01:04:22.125Z,6.30
2019-01-27T01:06:52.436Z,6.40
2019-01-27T01:09:22.693Z,6.40
2019-01-27T01:11:53.481Z,6.40
2019-01-27T01:14:23.790Z,6.40
2019-01-27T01:16:54.083Z,6.40
2019-01-27T01:19:24.377Z,6.50
2019-01-27T01:21:54.654Z,6.50
2019-01-27T01:24:24.914Z,6.50
2019-01-27T01:26:55.167Z,6.50
2019-01-27T01:29:25.453Z,6.50
2019-01-27T01:31:55.715Z,6.50
2019-01-27T01:34:25.902Z,6.50
2019-01-27T01:36:56.166Z,6.50
2019-01-27T01:39:26.791Z,6.50
2019-01-27T01:41:56.982Z,6.50
2019-01-27T01:44:27.234Z,6.50
2019-01-27T01:46:57.528Z,6.50
2019-01-27T01:49:27.775Z,6.50
2019-01-27T01:51:58.069Z,6.50
2019-01-27T01:54:28.425Z,6.50
2019-01-27T01:56:58.708Z,6.50
2019-01-27T01:59:28.939Z,6.50
2019-01-27T02:01:59.183Z,6.50
2019-01-27T02:04:29.459Z,6.50
2019-01-27T02:06:59.848Z,6.50
2019-01-27T02:09:30.177Z,6.50
2019-01-27T02:12:00.445Z,6.50
2019-01-27T02:14:31.072Z,6.50
2019-01-27T02:17:01.388Z,6.50
2019-01-27T02:19:31.659Z,6.50
2019-01-27T02:22:02.079Z,6.50
2019-01-27T02:24:32.373Z,6.50
2019-01-27T02:27:02.646Z,6.50
2019-01-27T02:29:32.948Z,6.60
2019-01-27T02:32:04.356Z,6.50
2019-01-27T02:34:35.013Z,6.60
2019-01-27T02:37:06.402Z,6.60
2019-01-27T02:39:36.668Z,6.60
2019-01-27T02:42:07.082Z,6.60
2019-01-27T02:44:37.388Z,6.70
2019-01-27T02:47:07.674Z,6.70
2019-01-27T02:49:37.930Z,6.70
2019-01-27T02:52:08.311Z,6.70
2019-01-27T02:54:38.563Z,6.70
2019-01-27T02:57:08.931Z,6.70
2019-01-27T02:59:39.263Z,6.70
2019-01-27T03:02:09.583Z,6.70
2019-01-27T03:04:39.960Z,6.80
2019-01-27T03:07:26.283Z,6.80
2019-01-27T03:09:59.711Z,6.80
2019-01-27T03:12:29.963Z,6.80
2019-01-27T03:15:00.318Z,6.80
2019-01-27T03:17:30.590Z,6.80
2019-01-27T03:20:00.965Z,6.90
2019-01-27T03:22:31.344Z,6.80
2019-01-27T03:25:01.610Z,6.90
2019-01-27T03:27:32.869Z,6.90
2019-01-27T03:30:03.336Z,6.90
2019-01-27T03:32:33.724Z,6.90
2019-01-27T03:35:04.163Z,6.90
2019-01-27T03:37:34.459Z,6.90
2019-01-27T03:40:05.494Z,6.90
2019-01-27T03:42:35.721Z,6.90
2019-01-27T03:45:06.788Z,6.90
2019-01-27T03:47:37.055Z,6.90
2019-01-27T03:50:09.627Z,6.90
2019-01-27T03:52:39.952Z,6.90
2019-01-27T03:55:13.663Z,6.90
2019-01-27T03:57:43.915Z,6.90
2019-01-27T04:00:16.982Z,6.90
2019-01-27T04:02:47.270Z,6.90
2019-01-27T04:05:17.824Z,6.90
2019-01-27T04:07:48.108Z,6.90
2019-01-27T04:10:19.954Z,7.00
2019-01-27T04:12:50.341Z,7.00
2019-01-27T04:15:20.588Z,7.00
2019-01-27T04:17:50.859Z,7.00
2019-01-27T04:20:21.489Z,7.10
2019-01-27T04:22:51.869Z,7.00
2019-01-27T04:25:22.570Z,7.10
2019-01-27T04:27:53.830Z,7.10
2019-01-27T04:30:36.171Z,7.10
2019-01-27T04:33:06.722Z,7.10
2019-01-27T04:35:36.879Z,7.10
2019-01-27T04:38:07.102Z,7.20
2019-01-27T04:40:37.357Z,7.20
2019-01-27T04:43:07.603Z,7.20
2019-01-27T04:45:38.784Z,7.10
2019-01-27T04:48:09.728Z,7.10
2019-01-27T04:50:40.003Z,7.10
2019-01-27T04:53:10.274Z,7.10
2019-01-27T04:55:40.579Z,7.00
2019-01-27T04:58:10.902Z,7.00
2019-01-27T05:00:41.478Z,7.00
2019-01-27T05:03:17.244Z,7.00
2019-01-27T05:05:47.507Z,7.00
2019-01-27T05:08:17.669Z,6.90
2019-01-27T05:10:47.902Z,6.90
2019-01-27T05:13:18.206Z,6.90
2019-01-27T05:15:48.480Z,6.90
2019-01-27T05:18:18.833Z,6.90
2019-01-27T05:20:49.183Z,6.90
2019-01-27T05:23:19.630Z,6.90
2019-01-27T05:25:49.946Z,6.90
2019-01-27T05:28:20.210Z,6.80
2019-01-27T05:30:50.424Z,6.80
2019-01-27T05:33:20.644Z,6.80
2019-01-27T05:35:51.660Z,6.80
2019-01-27T05:38:21.905Z,6.80
2019-01-27T05:40:52.162Z,6.90
2019-01-27T05:43:22.522Z,6.80
2019-01-27T05:45:52.806Z,6.80
2019-01-27T05:48:23.097Z,6.90
2019-01-27T05:50:53.370Z,6.90
2019-01-27T05:53:23.703Z,6.80
2019-01-27T05:55:54.054Z,6.80
2019-01-27T05:58:24.352Z,6.80
2019-01-27T06:00:54.518Z,6.80
2019-01-27T06:03:24.716Z,6.80
2019-01-27T06:05:54.986Z,6.80
2019-01-27T06:08:25.283Z,6.80
2019-01-27T06:10:55.506Z,6.70
2019-01-27T06:13:25.775Z,6.70
2019-01-27T06:15:56.082Z,6.70
2019-01-27T06:18:26.299Z,6.80
2019-01-27T06:20:56.713Z,6.80
2019-01-27T06:23:26.962Z,6.80
2019-01-27T06:25:57.269Z,6.80
2019-01-27T06:28:27.501Z,6.70
2019-01-27T06:30:57.791Z,6.70
2019-01-27T06:33:52.889Z,6.70
2019-01-27T06:36:23.286Z,6.60
2019-01-27T06:38:53.605Z,6.60
2019-01-27T06:41:23.797Z,6.70
2019-01-27T06:43:54.075Z,6.60
2019-01-27T06:46:25.440Z,6.60
2019-01-27T06:48:55.750Z,6.60
2019-01-27T06:51:25.943Z,6.60
2019-01-27T06:53:56.346Z,6.60
2019-01-27T06:56:26.787Z,6.60
2019-01-27T06:59:09.824Z,6.60
2019-01-27T07:01:44.715Z,6.50
2019-01-27T07:04:19.555Z,6.60
2019-01-27T07:07:07.445Z,6.60
2019-01-27T07:09:56.751Z,6.60
2019-01-27T07:12:48.659Z,6.60
2019-01-27T07:15:40.211Z,6.70
2019-01-27T07:18:19.007Z,6.80
2019-01-27T07:20:58.363Z,6.80
2019-01-27T07:24:06.396Z,6.80
2019-01-27T07:26:51.069Z,6.80
2019-01-27T07:29:46.039Z,6.80
2019-01-27T07:32:44.391Z,6.90
2019-01-27T07:35:42.560Z,6.90
2019-01-27T07:38:19.310Z,6.90
2019-01-27T07:40:58.517Z,6.90
2019-01-27T07:43:53.033Z,6.90
2019-01-27T07:46:43.883Z,6.90
2019-01-27T07:49:25.445Z,6.90
2019-01-27T07:52:08.878Z,6.90
2019-01-27T07:54:56.431Z,6.90
2019-01-27T07:57:54.668Z,6.90
2019-01-27T08:00:35.397Z,6.90
2019-01-27T08:03:30.595Z,6.90
2019-01-27T08:06:28.561Z,6.90
2019-01-27T08:09:16.324Z,7.00
2019-01-27T08:12:11.494Z,7.10
2019-01-27T08:14:55.342Z,7.10
2019-01-27T08:17:38.118Z,7.10
2019-01-27T08:20:28.108Z,7.10
2019-01-27T08:23:27.371Z,7.10
2019-01-27T08:26:10.075Z,7.10
2019-01-27T08:28:59.286Z,7.10
2019-01-27T08:31:57.541Z,7.20
2019-01-27T08:34:30.709Z,7.20
2019-01-27T08:37:25.963Z,7.20
2019-01-27T08:40:15.123Z,7.20
2019-01-27T08:43:03.393Z,7.20
2019-01-27T08:45:50.804Z,7.30
2019-01-27T08:48:21.106Z,7.30
2019-01-27T08:50:51.372Z,7.40
2019-01-27T08:53:21.971Z,7.50
2019-01-27T08:55:52.242Z,7.50
2019-01-27T08:58:22.396Z,7.50
2019-01-27T09:01:00.728Z,7.50
2019-01-27T09:03:51.532Z,7.60
2019-01-27T09:06:32.388Z,7.60
2019-01-27T09:09:20.243Z,7.60
2019-01-27T09:12:04.227Z,7.60
2019-01-27T09:14:53.404Z,7.70
2019-01-27T09:17:54.947Z,7.80
2019-01-27T09:20:44.147Z,7.80
2019-01-27T09:23:29.743Z,7.80
2019-01-27T09:26:14.569Z,7.80
2019-01-27T09:28:50.759Z,7.70
2019-01-27T09:31:38.671Z,7.70
2019-01-27T09:34:42.734Z,7.70
2019-01-27T09:37:38.778Z,7.70
2019-01-27T09:40:21.101Z,7.70
2019-01-27T09:43:22.424Z,7.80
2019-01-27T09:46:05.388Z,7.70
2019-01-27T09:48:49.480Z,7.70
2019-01-27T09:51:38.637Z,7.60
2019-01-27T09:54:26.517Z,7.60
2019-01-27T09:57:06.595Z,7.50
2019-01-27T09:59:43.211Z,7.40
2019-01-27T10:02:35.088Z,7.40
2019-01-27T10:05:16.675Z,7.30
2019-01-27T10:08:05.978Z,7.30
2019-01-27T10:10:47.370Z,7.30
2019-01-27T10:13:36.720Z,7.20
2019-01-27T10:16:38.080Z,7.20
2019-01-27T10:19:30.074Z,7.20
2019-01-27T10:22:34.470Z,7.30
2019-01-27T10:25:28.054Z,7.30
2019-01-27T10:28:19.270Z,7.30
2019-01-27T10:31:11.221Z,7.30
2019-01-27T10:33:54.745Z,7.40
2019-01-27T10:36:47.089Z,7.40
2019-01-27T10:39:33.910Z,7.40
2019-01-27T10:42:26.250Z,7.40
2019-01-27T10:45:08.575Z,7.30
2019-01-27T10:47:53.375Z,7.30
2019-01-27T10:50:40.663Z,7.30
2019-01-27T10:53:36.236Z,7.30
2019-01-27T10:56:25.389Z,7.30
2019-01-27T10:59:11.600Z,7.30
2019-01-27T11:01:53.263Z,7.30
2019-01-27T11:04:34.491Z,7.30
2019-01-27T11:07:26.559Z,7.30
2019-01-27T11:10:08.941Z,7.40
2019-01-27T11:12:56.711Z,7.40
2019-01-27T11:15:48.930Z,7.50
2019-01-27T11:18:44.333Z,7.50
2019-01-27T11:21:33.525Z,7.50
2019-01-27T11:24:21.110Z,7.40
2019-01-27T11:27:22.554Z,7.40
2019-01-27T11:30:12.099Z,7.30
2019-01-27T11:33:04.121Z,7.20
2019-01-27T11:35:53.638Z,7.10
2019-01-27T11:38:41.576Z,7.00
2019-01-27T11:41:33.483Z,7.00
2019-01-27T11:44:21.405Z,7.00
2019-01-27T11:47:02.666Z,7.10
2019-01-27T11:49:45.398Z,7.10
2019-01-27T11:52:26.216Z,7.10
2019-01-27T11:54:56.479Z,7.10
2019-01-27T11:57:26.661Z,7.20
2019-01-27T11:59:56.925Z,7.20
2019-01-27T12:02:27.234Z,7.30
2019-01-27T12:04:57.472Z,7.20
2019-01-27T12:07:27.683Z,7.20
2019-01-27T12:09:58.181Z,7.10
2019-01-27T12:12:28.658Z,7.10
2019-01-27T12:14:58.924Z,7.10
2019-01-27T12:17:29.209Z,7.10
2019-01-27T12:19:59.415Z,7.10
2019-01-27T12:22:29.676Z,7.10
2019-01-27T12:24:59.879Z,7.10
2019-01-27T12:27:30.163Z,7.10
2019-01-27T12:30:00.404Z,7.20
2019-01-27T12:32:30.564Z,7.10
2019-01-27T12:35:00.732Z,7.20
2019-01-27T12:37:31.007Z,7.10
2019-01-27T12:40:02.339Z,7.10
2019-01-27T12:42:32.808Z,7.10
2019-01-27T12:45:03.039Z,7.00
2019-01-27T12:47:33.315Z,7.10
2019-01-27T12:50:03.725Z,7.20
2019-01-27T12:52:34.018Z,7.20
2019-01-27T12:55:04.854Z,7.20
2019-01-27T12:57:35.437Z,7.20
2019-01-27T13:00:12.789Z,7.20
2019-01-27T13:02:43.014Z,7.20
2019-01-27T13:05:13.632Z,7.20
2019-01-27T13:07:43.733Z,7.30
2019-01-27T13:10:15.131Z,7.40
2019-01-27T13:12:45.930Z,7.30
2019-01-27T13:15:17.292Z,7.30
2019-01-27T13:17:47.538Z,7.40
2019-01-27T13:20:17.727Z,7.40
2019-01-27T13:22:47.946Z,7.30
2019-01-27T13:25:19.636Z,7.30
2019-01-27T13:27:49.900Z,7.30
2019-01-27T13:30:21.317Z,7.30
2019-01-27T13:32:51.545Z,7.20
2019-01-27T13:35:22.848Z,7.20
2019-01-27T13:37:52.996Z,7.20
2019-01-27T13:40:23.841Z,7.10
2019-01-27T13:42:54.043Z,7.10
2019-01-27T13:45:26.077Z,7.10
2019-01-27T13:47:58.912Z,7.20
2019-01-27T13:50:28.261Z,7.20
2019-01-27T13:52:58.499Z,7.30
2019-01-27T13:55:29.898Z,7.30
2019-01-27T13:58:00.126Z,7.20
2019-01-27T14:00:32.433Z,7.20
2019-01-27T14:03:02.752Z,7.20
2019-01-27T14:05:33.034Z,7.20
2019-01-27T14:08:03.243Z,7.20
2019-01-27T14:10:33.433Z,7.20
2019-01-27T14:13:03.661Z,7.20
2019-01-27T14:15:35.159Z,7.20
2019-01-27T14:18:06.474Z,7.20
2019-01-27T14:20:36.763Z,7.20
2019-01-27T14:23:07.031Z,7.10
2019-01-27T14:25:38.173Z,7.10
2019-01-27T14:28:08.388Z,7.10
2019-01-27T14:30:40.878Z,7.00
2019-01-27T14:33:11.183Z,7.10
2019-01-27T14:35:41.547Z,7.00
2019-01-27T14:38:11.767Z,7.00
2019-01-27T14:40:42.001Z,6.90
2019-01-27T14:43:13.221Z,6.90
2019-01-27T14:45:43.685Z,6.80
2019-01-27T14:48:13.873Z,6.70
2019-01-27T14:50:46.486Z,6.70
2019-01-27T14:53:18.839Z,6.70
2019-01-27T14:55:49.052Z,6.60
2019-01-27T14:58:19.273Z,6.50
2019-01-27T15:00:49.428Z,6.50
2019-01-27T15:03:19.624Z,6.40
2019-01-27T15:05:49.807Z,6.30
2019-01-27T15:08:20.146Z,6.30
2019-01-27T15:10:50.385Z,6.30
2019-01-27T15:13:20.907Z,6.30
2019-01-27T15:15:51.090Z,6.20
2019-01-27T15:18:21.639Z,6.20
2019-01-27T15:21:07.565Z,6.10
2019-01-27T15:23:37.893Z,6.00
2019-01-27T15:26:08.117Z,5.90
2019-01-27T15:28:38.772Z,5.90
2019-01-27T15:31:09.137Z,5.90
2019-01-27T15:33:39.403Z,5.90
2019-01-27T15:36:09.625Z,5.90
2019-01-27T15:38:39.887Z,5.80
2019-01-27T15:41:10.382Z,5.80
2019-01-27T15:43:40.741Z,5.80
2019-01-27T15:46:10.877Z,5.70
2019-01-27T15:48:41.276Z,5.70
2019-01-27T15:51:11.675Z,5.60
2019-01-27T15:53:41.897Z,5.60
2019-01-27T15:56:12.336Z,5.60
2019-01-27T15:58:43.645Z,5.60
2019-01-27T16:01:13.874Z,5.60
2019-01-27T16:03:44.945Z,5.60
2019-01-27T16:06:15.728Z,5.60
2019-01-27T16:08:46.115Z,5.60
2019-01-27T16:11:16.677Z,5.50
2019-01-27T16:13:46.874Z,5.50
2019-01-27T16:16:17.424Z,5.60
2019-01-27T16:18:47.668Z,5.60
2019-01-27T16:21:18.427Z,5.60
2019-01-27T16:23:51.305Z,5.60
2019-01-27T16:26:21.749Z,5.60
2019-01-27T16:28:52.120Z,5.50
2019-01-27T16:31:41.397Z,5.50
2019-01-27T16:34:30.679Z,5.50
2019-01-27T16:37:09.112Z,5.50
2019-01-27T16:39:39.727Z,5.40
2019-01-27T16:42:09.952Z,5.40
2019-01-27T16:44:40.096Z,5.40
2019-01-27T16:47:10.383Z,5.40
2019-01-27T16:49:40.544Z,5.30
2019-01-27T16:52:10.832Z,5.20
2019-01-27T16:54:41.069Z,5.20
2019-01-27T16:57:11.535Z,5.10
2019-01-27T16:59:41.913Z,5.00
2019-01-27T17:02:12.205Z,5.10
2019-01-27T17:04:42.358Z,5.10
2019-01-27T17:07:12.675Z,5.10
2019-01-27T17:09:42.933Z,5.10
2019-01-27T17:12:13.155Z,5.10
2019-01-27T17:14:43.424Z,5.00
2019-01-27T17:17:13.791Z,5.00
2019-01-27T17:19:44.568Z,5.00
2019-01-27T17:22:15.858Z,5.00
2019-01-27T17:24:46.143Z,5.00
2019-01-27T17:27:16.375Z,5.00
2019-01-27T17:29:46.965Z,4.90
2019-01-27T17:32:17.323Z,5.00
2019-01-27T17:34:47.551Z,5.00
2019-01-27T17:37:17.851Z,4.90
2019-01-27T17:39:48.468Z,5.00
2019-01-27T17:42:18.613Z,4.90
2019-01-27T17:44:48.785Z,4.90
2019-01-27T17:47:19.023Z,5.00
2019-01-27T17:49:49.332Z,4.90
2019-01-27T17:52:19.610Z,4.90
2019-01-27T17:54:49.891Z,4.90
2019-01-27T17:57:50.539Z,4.90
2019-01-27T18:00:45.757Z,4.90
2019-01-27T18:03:35.214Z,5.00
2019-01-27T18:06:15.816Z,4.90
2019-01-27T18:09:05.031Z,4.90
2019-01-27T18:11:40.348Z,4.90
2019-01-27T18:14:17.739Z,4.90
2019-01-27T18:16:48.394Z,4.90
2019-01-27T18:19:18.676Z,4.90
2019-01-27T18:21:49.012Z,4.90
2019-01-27T18:24:20.788Z,4.90
2019-01-27T18:26:51.191Z,4.90
2019-01-27T18:29:21.718Z,4.90
2019-01-27T18:31:52.238Z,4.90
2019-01-27T18:34:22.552Z,4.80
2019-01-27T18:36:52.765Z,4.80
2019-01-27T18:39:23.120Z,4.70
2019-01-27T18:41:53.387Z,4.70
2019-01-27T18:44:23.698Z,4.70
2019-01-27T18:46:54.011Z,4.60
2019-01-27T18:49:24.223Z,4.60
2019-01-27T18:51:55.333Z,4.50
2019-01-27T18:54:44.530Z,4.50
2019-01-27T18:57:29.774Z,4.50
2019-01-27T19:00:15.588Z,4.40
2019-01-27T19:03:03.506Z,4.40
2019-01-27T19:05:52.802Z,4.40
2019-01-27T19:08:34.308Z,4.40
2019-01-27T19:11:23.103Z,4.30
2019-01-27T19:14:18.246Z,4.40
2019-01-27T19:17:06.109Z,4.30
2019-01-27T19:20:07.662Z,4.30
2019-01-27T19:23:11.841Z,4.30
2019-01-27T19:26:12.913Z,4.30
2019-01-27T19:29:08.183Z,4.30
2019-01-27T19:32:05.049Z,4.20
2019-01-27T19:34:43.218Z,4.20
2019-01-27T19:37:26.947Z,4.20
2019-01-27T19:40:05.063Z,4.20
2019-01-27T19:43:12.425Z,4.10
2019-01-27T19:46:08.559Z,4.00
2019-01-27T19:48:45.680Z,4.00
2019-01-27T19:51:52.879Z,3.90
2019-01-27T19:54:40.468Z,3.90
2019-01-27T19:57:27.319Z,3.90
2019-01-27T20:00:16.586Z,3.80
2019-01-27T20:03:21.093Z,3.80
2019-01-27T20:06:03.999Z,3.80
2019-01-27T20:08:56.408Z,3.80
2019-01-27T20:11:44.199Z,3.80
2019-01-27T20:14:27.657Z,3.90
2019-01-27T20:17:22.651Z,4.00
2019-01-27T20:20:17.970Z,4.00
2019-01-27T20:23:19.104Z,4.10
2019-01-27T20:25:57.734Z,4.00
2019-01-27T20:28:46.809Z,4.00
2019-01-27T20:31:39.012Z,3.90
2019-01-27T20:34:43.193Z,3.80
2019-01-27T20:37:41.593Z,3.80
2019-01-27T20:40:19.126Z,3.70
2019-01-27T20:43:08.400Z,3.70
2019-01-27T20:45:45.184Z,3.80
2019-01-27T20:48:40.406Z,3.80
2019-01-27T20:51:18.325Z,3.70
2019-01-27T20:54:06.240Z,3.70
2019-01-27T20:57:00.574Z,3.80
2019-01-27T21:00:01.958Z,3.80
2019-01-27T21:02:50.462Z,3.80
2019-01-27T21:05:32.031Z,3.70
2019-01-27T21:08:12.366Z,3.70
2019-01-27T21:11:04.669Z,3.70
2019-01-27T21:13:57.095Z,3.80
2019-01-27T21:16:52.145Z,3.90
2019-01-27T21:19:33.022Z,3.90
2019-01-27T21:22:03.362Z,3.90
2019-01-27T21:24:33.717Z,4.00
2019-01-27T21:27:06.495Z,4.00
2019-01-27T21:29:36.622Z,4.00
2019-01-27T21:32:07.004Z,3.90
2019-01-27T21:34:37.372Z,3.90
2019-01-27T21:37:07.739Z,3.90
2019-01-27T21:39:38.183Z,3.90
2019-01-27T21:42:08.461Z,3.90
2019-01-27T21:44:38.812Z,3.90
2019-01-27T21:47:09.225Z,3.90
2019-01-27T21:49:39.674Z,3.90
2019-01-27T21:52:10.038Z,3.90
2019-01-27T21:54:40.392Z,3.90
2019-01-27T21:57:11.207Z,3.90
2019-01-27T21:59:41.671Z,3.90
2019-01-27T22:02:12.188Z,3.90
2019-01-27T22:04:42.675Z,3.90
2019-01-27T22:07:13.403Z,3.90
2019-01-27T22:09:43.866Z,3.90
2019-01-27T22:12:16.053Z,4.00
2019-01-27T22:14:46.671Z,4.00
2019-01-27T22:17:17.137Z,4.00
2019-01-27T22:19:48.534Z,4.00
2019-01-27T22:22:18.965Z,4.00
2019-01-27T22:24:49.397Z,4.00
2019-01-27T22:27:19.839Z,4.10
2019-01-27T22:29:50.244Z,4.00
2019-01-27T22:32:20.569Z,4.00
2019-01-27T22:34:50.965Z,4.10
2019-01-27T22:37:21.365Z,4.10
2019-01-27T22:39:51.766Z,4.10
2019-01-27T22:42:22.115Z,4.10
2019-01-27T22:44:52.521Z,4.10
2019-01-27T22:47:22.796Z,4.20
2019-01-27T22:49:53.576Z,4.20
2019-01-27T22:52:23.858Z,4.20
2019-01-27T22:54:54.103Z,4.10
2019-01-27T22:57:24.418Z,4.20
2019-01-27T22:59:54.836Z,4.20
2019-01-27T23:02:26.761Z,4.20
2019-01-27T23:04:57.170Z,4.30
2019-01-27T23:07:27.532Z,4.20
2019-01-27T23:09:58.266Z,4.20
2019-01-27T23:12:28.595Z,4.20
2019-01-27T23:14:58.858Z,4.20
2019-01-27T23:17:29.312Z,4.20
2019-01-27T23:19:59.692Z,4.20
2019-01-27T23:22:30.027Z,4.20
2019-01-27T23:25:00.336Z,4.20
2019-01-27T23:27:30.732Z,4.20
2019-01-27T23:30:01.182Z,4.20
2019-01-27T23:32:32.013Z,4.20
2019-01-27T23:35:02.509Z,4.20
2019-01-27T23:37:32.904Z,4.20
2019-01-27T23:40:03.238Z,4.20
2019-01-27T23:42:35.815Z,4.10
2019-01-27T23:45:06.852Z,4.10
2019-01-27T23:47:37.159Z,4.10
2019-01-27T23:50:07.631Z,4.10
2019-01-27T23:52:38.111Z,4.10
2019-01-27T23:55:08.835Z,4.10
2019-01-27T23:57:39.649Z,4.10
